Terminal Aerodrome Forecast
Issued by NWS

Home | Current Version | Previous Version | Text Only | Print | Product List | Glossary On
Versions: 1 2 3 4 5 6 7 8 9 10 11 12 13 14 15 16 17 18 19 20
000
FTUS43 KFGF 261700
TAFDVL
TAF
KDVL 261735Z 2618/2718 28022G28KT P6SM VCSH BKN050
     FM262000 28024G32KT P6SM VCSH BKN050
     FM270200 32017G26KT P6SM VCSH BKN040
     FM270900 34015G22KT P6SM VCSH BKN035
     FM271400 35017G26KT P6SM BKN035
      AMD LTD TO CLD VIS AND WIND=

USA.gov is the U.S. government's official web portal to all federal, state and local government web resources and services.